TFM - Tactical Decision Aid (Experimental) INFO Settings
ID: Runway Winds: CIG/VIS Threshold: METAR Board: Map:

KATL - Atlanta-Hartsfield Jackson Intl

Updated at: 2258 UTC 20 Feb 2018
Latest TAF at: 2135 UTC 20 Feb 2018

TAF Board

Time2252Z20/23Z21/00Z21/01Z21/02Z21/03Z21/04Z21/05Z21/06Z21/07Z21/08Z21/09Z21/10Z21/11Z
TypeOBSPRVLPRVLPRVLPRVLPRVLPRVLPRVLPRVLPRVLPRVLPRVLPRVLPRVL
VIS10>6>6>6>6>6>6>6444422
CIG8035352525252525777744
CoverBKNOVCOVCBKNBKNBKNBKNBKNOVCOVCOVCOVCOVCOVC
FltCatVFRVFRVFRMVFRMVFRMVFRMVFRMVFRIFRIFRIFRIFRLIFRLIFR
WX------VCSHVCSHVCSHVCSHVCSHBRBRBRBRBRBR
WDir130150150140140140140140140140140140150150
WSpd8101077777666677
WGst----------------------------
TAF
KATL 202135Z 2022/2124 15010KT P6SM BKN035 OVC070
  FM210100 14007KT P6SM VCSH BKN025
  FM210600 14006KT 4SM BR OVC007
  FM211000 15007KT 2SM BR OVC004
  FM211600 17006KT 6SM BR BKN007
  FM211800 17007KT P6SM BKN025


METAR
KATL 202252Z 13008KT 10SM FEW030 SCT060 BKN080 23/17 A3032 RMK AO2 SLP263 T02280167
KATL 202152Z 15008KT 10SM FEW030 SCT050 BKN080 23/17 A3031 RMK AO2 SLP258 T02330167

TAF/METAR Board Legend

Potential Impact
  None Marginal Slight Moderate High
Visibility (sm) >5 3≤X≤5 1≤X<3 0.5≤X<1 <0.5
Ceiling (100 ft) >30 10≤X≤30 4≤X<10 2≤X<4 <2
Wind Speed (kt) <10 10≤X<20 20≤X<30 ≥30
Wind Gust (kt) <15 15≤X<25 25≤X<35 ≥35
Weather No Wx Reported VCTS -TS,-FZRA TS,FZRA +TS,+FZRA




Page loaded:  22:58 UTC  |   02:58 PM Pacific  |   03:58 PM Mountain  |   04:58 PM Central  |   05:58 PM Eastern